Deptford Township, New Jersey
Current Conditions -  °F | °C
As of 3:54 AM on Sunday 23 Nov 2014 (Local Time) from KPHL Reporting Station
Broken Clouds Broken Clouds  
Wind Chill: 35°   Ceiling: 25000
Heat Index: 40°   Visibility: 10mi
Dew Point: 24°   Wind: 7mph
Humidity: 53%   Direction: 200°SSW
Pressure: 30.21"   Gusts: NA
Location:  39.8266°N, 75.1276°W
Report Text: KPHL 230854Z 20006KT 10SM FEW090 SCT120 BKN250 04/M04 A3021 RMK AO2 SLP230 T00441044 58010 $
Loading
Personal Weather Stations






























Interactive Weather Map New forecast layout! Learn more

10-Day Weather Forecast

Advertisements
Track Severe Weather on mobile